createdAt,value
2019-05-30T00:02:07.332Z,9.90
2019-05-30T00:04:26.299Z,9.90
2019-05-30T00:06:45.241Z,9.90
2019-05-30T00:09:06.104Z,9.90
2019-05-30T00:11:26.608Z,9.90
2019-05-30T00:13:45.558Z,9.80
2019-05-30T00:16:05.685Z,9.80
2019-05-30T00:18:24.809Z,9.80
2019-05-30T00:20:46.698Z,9.70
2019-05-30T00:23:05.660Z,9.70
2019-05-30T00:25:24.640Z,9.70
2019-05-30T00:27:43.550Z,9.70
2019-05-30T00:30:03.555Z,9.70
2019-05-30T00:32:23.613Z,9.70
2019-05-30T00:34:42.624Z,9.70
2019-05-30T00:37:02.089Z,9.70
2019-05-30T00:39:21.158Z,9.60
2019-05-30T00:41:40.139Z,9.70
2019-05-30T00:43:59.915Z,9.60
2019-05-30T00:46:18.913Z,9.70
2019-05-30T00:48:37.820Z,9.70
2019-05-30T00:50:58.342Z,9.70
2019-05-30T00:53:17.404Z,9.70
2019-05-30T00:55:36.436Z,9.70
2019-05-30T00:57:56.610Z,9.70
2019-05-30T01:00:15.958Z,9.80
2019-05-30T01:02:35.019Z,9.80
2019-05-30T01:04:53.991Z,9.70
2019-05-30T01:07:12.980Z,9.80
2019-05-30T01:09:32.002Z,9.70
2019-05-30T01:11:51.029Z,9.70
2019-05-30T01:14:10.903Z,9.70
2019-05-30T01:16:29.864Z,9.70
2019-05-30T01:18:48.905Z,9.70
2019-05-30T01:21:07.812Z,9.70
2019-05-30T01:23:26.833Z,9.70
2019-05-30T01:25:45.847Z,9.70
2019-05-30T01:28:05.661Z,9.70
2019-05-30T01:30:24.686Z,9.70
2019-05-30T01:32:43.601Z,9.70
2019-05-30T01:35:03.719Z,9.80
2019-05-30T01:37:22.900Z,9.80
2019-05-30T01:39:41.950Z,9.70
2019-05-30T01:42:01.830Z,9.70
2019-05-30T01:44:20.935Z,9.70
2019-05-30T01:52:34.872Z,9.80
2019-05-30T01:54:56.676Z,9.70
2019-05-30T01:57:15.704Z,9.70
2019-05-30T01:59:34.782Z,9.60
2019-05-30T02:01:54.859Z,9.60
2019-05-30T02:04:13.821Z,9.60
2019-05-30T02:06:33.093Z,9.70
2019-05-30T02:08:52.969Z,9.70
2019-05-30T02:11:12.698Z,9.70
2019-05-30T02:13:32.556Z,9.60
2019-05-30T02:15:52.730Z,9.60
2019-05-30T02:18:14.936Z,9.70
2019-05-30T02:20:35.609Z,9.60
2019-05-30T02:22:55.013Z,9.70
2019-05-30T02:25:14.284Z,9.70
2019-05-30T02:27:33.300Z,9.70
2019-05-30T02:29:52.415Z,9.70
2019-05-30T02:32:11.385Z,9.70
2019-05-30T02:34:30.483Z,9.70
2019-05-30T02:36:49.471Z,9.60
2019-05-30T02:39:09.857Z,9.60
2019-05-30T02:41:29.699Z,9.60
2019-05-30T02:43:48.965Z,9.60
2019-05-30T02:46:09.746Z,9.60
2019-05-30T02:48:28.592Z,9.60
2019-05-30T02:50:47.517Z,9.60
2019-05-30T02:53:08.055Z,9.60
2019-05-30T02:55:28.084Z,9.60
2019-05-30T02:57:47.069Z,9.60
2019-05-30T03:00:08.224Z,9.60
2019-05-30T03:02:27.537Z,9.60
2019-05-30T03:04:46.464Z,9.70
2019-05-30T03:07:07.038Z,9.70
2019-05-30T03:09:26.348Z,9.70
2019-05-30T03:11:45.603Z,9.70
2019-05-30T03:14:07.037Z,9.80
2019-05-30T03:16:26.341Z,9.70
2019-05-30T03:18:45.337Z,9.70
2019-05-30T03:21:08.073Z,9.70
2019-05-30T03:23:26.981Z,9.70
2019-05-30T03:25:46.124Z,9.70
2019-05-30T03:28:07.601Z,9.80
2019-05-30T03:30:29.651Z,9.90
2019-05-30T03:33:29.038Z,9.80
2019-05-30T03:35:24.119Z,9.80
2019-05-30T03:37:34.692Z,9.80
2019-05-30T03:39:54.436Z,9.70
2019-05-30T03:42:15.905Z,9.80
2019-05-30T03:44:35.579Z,9.70
2019-05-30T03:46:59.012Z,9.80
2019-05-30T03:49:23.492Z,9.80
2019-05-30T03:51:44.338Z,9.80
2019-05-30T03:54:06.649Z,9.80
2019-05-30T03:56:30.380Z,9.80
2019-05-30T03:58:51.169Z,9.80
2019-05-30T04:01:13.228Z,9.80
2019-05-30T04:03:35.257Z,9.80
2019-05-30T04:06:14.467Z,9.80
2019-05-30T04:08:34.662Z,9.80
2019-05-30T04:10:54.723Z,9.80
2019-05-30T04:13:21.201Z,9.80
2019-05-30T04:15:40.191Z,9.90
2019-05-30T04:17:59.204Z,9.90
2019-05-30T04:20:22.541Z,9.90
2019-05-30T04:22:39.973Z,9.90
2019-05-30T04:25:00.154Z,9.90
2019-05-30T04:27:21.768Z,9.90
2019-05-30T04:29:40.896Z,9.90
2019-05-30T04:31:59.840Z,10.00
2019-05-30T04:34:21.438Z,10.00
2019-05-30T04:36:40.452Z,10.10
2019-05-30T04:38:59.383Z,10.10
2019-05-30T04:41:20.832Z,10.20
2019-05-30T04:43:39.173Z,10.20
2019-05-30T04:48:37.334Z,10.20
2019-05-30T04:50:56.334Z,10.30
2019-05-30T04:53:16.340Z,10.30
2019-05-30T04:55:35.584Z,10.30
2019-05-30T04:57:54.807Z,10.30
2019-05-30T05:00:15.241Z,10.30
2019-05-30T05:02:34.412Z,10.30
2019-05-30T05:04:53.402Z,10.30
2019-05-30T05:07:13.577Z,10.30
2019-05-30T05:09:32.693Z,10.20
2019-05-30T05:11:51.728Z,10.30
2019-05-30T05:14:12.233Z,10.30
2019-05-30T05:16:35.979Z,10.30
2019-05-30T05:18:52.090Z,10.30
2019-05-30T05:21:11.120Z,10.30
2019-05-30T05:23:30.253Z,10.30
2019-05-30T05:26:00.443Z,10.30
2019-05-30T05:28:09.966Z,10.30
2019-05-30T05:30:29.036Z,10.30
2019-05-30T05:32:48.114Z,10.30
2019-05-30T05:35:07.699Z,10.30
2019-05-30T05:37:27.371Z,10.30
2019-05-30T05:39:46.527Z,10.30
2019-05-30T05:42:05.558Z,10.30
2019-05-30T05:44:24.619Z,10.30
2019-05-30T05:46:43.721Z,10.30
2019-05-30T05:49:02.747Z,10.30
2019-05-30T05:51:22.782Z,10.30
2019-05-30T05:53:41.902Z,10.30
2019-05-30T05:56:01.019Z,10.40
2019-05-30T05:58:20.891Z,10.30
2019-05-30T06:00:40.043Z,10.30
2019-05-30T06:02:59.140Z,10.40
2019-05-30T06:05:18.361Z,10.50
2019-05-30T06:07:37.519Z,10.50
2019-05-30T06:09:57.043Z,10.50
2019-05-30T06:12:17.618Z,10.50
2019-05-30T06:14:36.628Z,10.40
2019-05-30T06:16:56.064Z,10.40
2019-05-30T06:19:15.304Z,10.50
2019-05-30T06:21:34.545Z,10.60
2019-05-30T06:23:53.713Z,10.60
2019-05-30T06:26:12.834Z,10.60
2019-05-30T06:28:31.899Z,10.60
2019-05-30T06:30:51.819Z,10.60
2019-05-30T06:33:10.894Z,10.60
2019-05-30T06:35:30.272Z,10.60
2019-05-30T06:37:50.889Z,10.60
2019-05-30T06:40:10.406Z,10.60
2019-05-30T06:42:30.568Z,10.60
2019-05-30T06:44:49.796Z,10.60
2019-05-30T06:47:10.114Z,10.60
2019-05-30T06:49:29.367Z,10.70
2019-05-30T06:51:48.396Z,10.60
2019-05-30T06:54:07.488Z,10.70
2019-05-30T06:56:27.453Z,10.70
2019-05-30T06:58:49.006Z,10.70
2019-05-30T07:01:07.226Z,10.70
2019-05-30T07:03:26.527Z,10.70
2019-05-30T07:05:46.035Z,10.80
2019-05-30T07:08:05.429Z,10.80
2019-05-30T07:10:24.898Z,10.90
2019-05-30T07:12:44.129Z,10.90
2019-05-30T07:15:04.742Z,10.90
2019-05-30T07:17:25.233Z,11.00
2019-05-30T07:19:44.263Z,11.00
2019-05-30T07:22:03.552Z,11.10
2019-05-30T07:24:23.673Z,11.20
2019-05-30T07:26:42.935Z,11.30
2019-05-30T07:29:02.147Z,11.40
2019-05-30T07:31:21.301Z,11.40
2019-05-30T07:33:40.420Z,11.50
2019-05-30T07:35:59.606Z,11.70
2019-05-30T07:38:18.751Z,11.80
2019-05-30T07:40:37.857Z,12.00
2019-05-30T07:42:56.963Z,12.10
2019-05-30T07:45:16.159Z,11.90
2019-05-30T07:47:35.211Z,11.90
2019-05-30T07:49:54.209Z,11.90
2019-05-30T07:52:13.321Z,12.00
2019-05-30T07:54:33.057Z,12.20
2019-05-30T07:56:52.217Z,12.30
2019-05-30T07:59:11.371Z,12.40
2019-05-30T08:01:30.572Z,12.60
2019-05-30T08:03:49.576Z,12.50
2019-05-30T08:06:08.646Z,12.70
2019-05-30T08:08:28.133Z,13.00
2019-05-30T08:10:47.487Z,13.20
2019-05-30T08:13:06.596Z,13.30
2019-05-30T08:15:25.645Z,13.40
2019-05-30T08:17:44.805Z,13.40
2019-05-30T08:20:07.344Z,13.40
2019-05-30T08:22:27.881Z,13.60
2019-05-30T08:24:47.112Z,13.60
2019-05-30T08:27:06.232Z,13.90
2019-05-30T08:29:25.316Z,14.00
2019-05-30T08:31:44.281Z,14.10
2019-05-30T08:34:03.462Z,14.20
2019-05-30T08:36:22.447Z,14.20
2019-05-30T08:38:42.379Z,14.20
2019-05-30T08:41:01.419Z,14.70
2019-05-30T08:43:20.508Z,14.90
2019-05-30T08:45:39.988Z,15.10
2019-05-30T08:47:59.267Z,15.40
2019-05-30T08:50:18.345Z,15.40
2019-05-30T08:52:38.509Z,15.50
2019-05-30T08:54:57.707Z,15.80
2019-05-30T08:57:16.753Z,16.00
2019-05-30T08:59:36.680Z,16.10
2019-05-30T09:01:55.779Z,16.20
2019-05-30T09:04:14.911Z,16.10
2019-05-30T09:06:33.981Z,16.10
2019-05-30T09:08:52.980Z,16.10
2019-05-30T09:11:11.979Z,15.90
2019-05-30T09:13:30.947Z,15.70
2019-05-30T09:15:50.016Z,15.70
2019-05-30T09:18:09.145Z,15.60
2019-05-30T09:20:30.768Z,15.60
2019-05-30T09:22:48.964Z,15.60
2019-05-30T09:25:09.169Z,15.60
2019-05-30T09:27:28.549Z,15.50
2019-05-30T09:29:48.289Z,15.40
2019-05-30T09:32:07.319Z,15.50
2019-05-30T09:34:26.366Z,15.40
2019-05-30T09:36:45.473Z,15.20
2019-05-30T09:39:05.974Z,15.20
2019-05-30T09:41:25.047Z,15.20
2019-05-30T09:43:44.729Z,15.00
2019-05-30T09:46:05.113Z,15.00
2019-05-30T09:48:27.012Z,15.00
2019-05-30T09:50:46.787Z,15.10
2019-05-30T09:53:05.837Z,15.30
2019-05-30T09:55:25.880Z,15.20
2019-05-30T09:57:45.863Z,15.40
2019-05-30T10:00:09.421Z,15.50
2019-05-30T10:02:29.420Z,15.70
2019-05-30T10:04:48.574Z,15.80
2019-05-30T10:07:07.660Z,16.10
2019-05-30T10:09:29.604Z,16.40
2019-05-30T10:11:49.342Z,16.60
2019-05-30T10:14:09.260Z,16.40
2019-05-30T10:16:28.190Z,16.50
2019-05-30T10:18:47.719Z,16.60
2019-05-30T10:21:08.040Z,16.50
2019-05-30T10:23:27.065Z,16.20
2019-05-30T10:25:47.574Z,16.30
2019-05-30T10:28:08.553Z,16.40
2019-05-30T10:30:27.775Z,16.50
2019-05-30T10:32:48.545Z,16.40
2019-05-30T10:35:08.670Z,16.00
2019-05-30T10:37:27.587Z,15.90
2019-05-30T10:39:47.250Z,16.00
2019-05-30T10:42:06.390Z,16.00
2019-05-30T10:44:25.383Z,16.00
2019-05-30T10:46:44.388Z,16.10
2019-05-30T10:49:03.484Z,16.20
2019-05-30T10:51:22.421Z,16.40
2019-05-30T10:53:43.016Z,16.50
2019-05-30T10:56:02.034Z,16.60
2019-05-30T10:58:22.914Z,16.70
2019-05-30T11:00:43.349Z,17.00
2019-05-30T11:03:02.391Z,17.10
2019-05-30T11:05:21.470Z,17.20
2019-05-30T11:07:55.138Z,17.10
2019-05-30T11:10:06.891Z,16.90
2019-05-30T11:12:25.925Z,16.60
2019-05-30T11:14:44.930Z,16.70
2019-05-30T11:17:05.523Z,16.80
2019-05-30T11:19:27.397Z,16.80
2019-05-30T11:21:47.828Z,16.70
2019-05-30T11:24:06.802Z,16.80
2019-05-30T11:26:25.850Z,16.90
2019-05-30T11:28:46.494Z,17.10
2019-05-30T11:31:05.801Z,17.20
2019-05-30T11:33:24.825Z,17.40
2019-05-30T11:35:43.903Z,17.60
2019-05-30T11:38:04.806Z,17.50
2019-05-30T11:40:23.963Z,17.60
2019-05-30T11:42:42.977Z,17.50
2019-05-30T11:45:02.033Z,17.50
2019-05-30T11:47:21.022Z,17.60
2019-05-30T11:49:39.965Z,17.60
2019-05-30T11:51:59.975Z,17.50
2019-05-30T11:54:19.132Z,17.60
2019-05-30T11:56:38.129Z,17.50
2019-05-30T11:58:58.082Z,17.40
2019-05-30T12:01:17.089Z,17.50
2019-05-30T12:03:36.013Z,17.50
2019-05-30T12:05:55.190Z,17.40
2019-05-30T12:08:14.379Z,17.40
2019-05-30T12:10:33.573Z,17.30
2019-05-30T12:12:53.203Z,17.20
2019-05-30T12:15:13.243Z,17.20
2019-05-30T12:17:32.199Z,16.90
2019-05-30T12:19:51.369Z,16.80
2019-05-30T12:22:10.486Z,16.80
2019-05-30T12:24:29.449Z,16.70
2019-05-30T12:26:48.706Z,16.60
2019-05-30T12:29:07.724Z,16.70
2019-05-30T12:31:26.680Z,16.80
2019-05-30T12:33:45.676Z,16.80
2019-05-30T12:36:04.949Z,17.00
2019-05-30T12:38:23.987Z,17.10
2019-05-30T12:40:42.951Z,16.90
2019-05-30T12:43:04.789Z,17.00
2019-05-30T12:45:24.918Z,16.80
2019-05-30T12:47:43.843Z,16.80
2019-05-30T12:50:03.645Z,16.70
2019-05-30T12:52:24.021Z,16.60
2019-05-30T12:54:43.081Z,16.50
2019-05-30T12:57:03.229Z,16.30
2019-05-30T12:59:23.184Z,16.20
2019-05-30T13:01:42.905Z,16.10
2019-05-30T13:04:03.099Z,16.10
2019-05-30T13:06:22.353Z,16.10
2019-05-30T13:08:41.410Z,16.10
2019-05-30T13:11:01.733Z,16.10
2019-05-30T13:13:20.944Z,16.10
2019-05-30T13:15:39.902Z,16.10
2019-05-30T13:17:59.005Z,16.20
2019-05-30T13:20:18.190Z,16.40
2019-05-30T13:22:37.353Z,16.40
2019-05-30T13:25:15.664Z,16.50
2019-05-30T13:27:34.769Z,16.40
2019-05-30T13:29:55.958Z,16.40
2019-05-30T13:32:15.005Z,16.20
2019-05-30T13:34:34.031Z,16.20
2019-05-30T13:36:53.187Z,16.10
2019-05-30T13:39:12.245Z,16.00
2019-05-30T13:41:31.215Z,15.90
2019-05-30T13:43:50.218Z,15.80
2019-05-30T13:46:10.249Z,15.80
2019-05-30T13:48:29.256Z,15.70
2019-05-30T13:50:48.328Z,15.70
2019-05-30T13:53:07.469Z,15.70
2019-05-30T13:55:28.285Z,15.60
2019-05-30T13:57:47.448Z,15.60
2019-05-30T14:00:08.145Z,15.50
2019-05-30T14:02:28.890Z,15.40
2019-05-30T14:04:48.031Z,15.40
2019-05-30T14:07:08.466Z,15.30
2019-05-30T14:09:27.629Z,15.30
2019-05-30T14:11:46.616Z,15.20
2019-05-30T14:14:06.739Z,15.30
2019-05-30T14:16:26.041Z,15.40
2019-05-30T14:18:45.137Z,15.40
2019-05-30T14:21:05.169Z,15.30
2019-05-30T14:23:24.177Z,15.40
2019-05-30T14:25:43.108Z,15.30
2019-05-30T14:28:02.127Z,15.40
2019-05-30T14:30:21.148Z,15.30
2019-05-30T14:32:40.137Z,15.40
2019-05-30T14:34:59.196Z,15.40
2019-05-30T14:37:18.270Z,15.30
2019-05-30T14:39:37.323Z,15.40
2019-05-30T14:41:58.356Z,15.50
2019-05-30T14:44:17.511Z,15.60
2019-05-30T14:46:36.463Z,15.80
2019-05-30T14:48:55.414Z,15.80
2019-05-30T14:51:14.522Z,16.00
2019-05-30T14:53:33.571Z,16.20
2019-05-30T14:55:52.733Z,16.30
2019-05-30T14:58:11.721Z,16.20
2019-05-30T15:00:30.652Z,16.10
2019-05-30T15:02:49.609Z,16.00
2019-05-30T15:05:09.368Z,15.90
2019-05-30T15:07:28.490Z,15.80
2019-05-30T15:09:47.437Z,15.70
2019-05-30T15:12:07.036Z,15.60
2019-05-30T15:14:26.212Z,15.50
2019-05-30T15:16:45.272Z,15.50
2019-05-30T15:19:06.332Z,15.40
2019-05-30T15:21:28.178Z,15.40
2019-05-30T15:23:47.162Z,15.40
2019-05-30T15:26:06.159Z,15.30
2019-05-30T15:28:25.158Z,15.30
2019-05-30T15:30:44.178Z,15.30
2019-05-30T15:33:03.179Z,15.30
2019-05-30T15:35:22.201Z,15.20
2019-05-30T15:37:41.269Z,15.20
2019-05-30T15:40:00.238Z,15.10
2019-05-30T15:42:22.408Z,15.00
2019-05-30T15:44:42.152Z,14.90
2019-05-30T15:47:01.171Z,14.80
2019-05-30T15:49:21.224Z,14.70
2019-05-30T15:51:40.173Z,14.60
2019-05-30T15:53:59.157Z,14.60
2019-05-30T15:56:19.407Z,14.60
2019-05-30T15:58:38.509Z,14.70
2019-05-30T16:00:57.530Z,14.70
2019-05-30T16:03:16.578Z,14.70
2019-05-30T16:05:35.651Z,14.60
2019-05-30T16:07:54.699Z,14.60
2019-05-30T16:10:14.801Z,14.60
2019-05-30T16:12:34.095Z,14.60
2019-05-30T16:14:55.434Z,14.50
2019-05-30T16:17:15.761Z,14.40
2019-05-30T16:19:34.763Z,14.30
2019-05-30T16:21:56.822Z,14.20
2019-05-30T16:24:17.181Z,14.10
2019-05-30T16:26:36.269Z,14.10
2019-05-30T16:28:58.418Z,14.00
2019-05-30T16:31:17.798Z,13.90
2019-05-30T16:33:37.088Z,13.90
2019-05-30T16:35:56.204Z,13.80
2019-05-30T16:38:16.068Z,13.80
2019-05-30T16:43:14.590Z,13.80
2019-05-30T16:45:30.604Z,13.70
2019-05-30T16:47:49.967Z,13.70
2019-05-30T16:50:10.434Z,13.70
2019-05-30T16:52:29.746Z,13.60
2019-05-30T16:54:48.803Z,13.60
2019-05-30T16:57:07.734Z,13.40
2019-05-30T16:59:26.939Z,13.50
2019-05-30T17:01:56.433Z,13.30
2019-05-30T17:04:06.662Z,13.40
2019-05-30T17:06:26.259Z,13.20
2019-05-30T17:08:45.332Z,13.20
2019-05-30T17:11:04.358Z,13.20
2019-05-30T17:13:23.829Z,13.10
2019-05-30T17:15:42.986Z,13.10
2019-05-30T17:18:01.933Z,13.00
2019-05-30T17:20:21.067Z,13.00
2019-05-30T17:22:40.104Z,13.00
2019-05-30T17:24:59.040Z,13.00
2019-05-30T17:27:19.131Z,12.80
2019-05-30T17:29:38.205Z,12.80
2019-05-30T17:31:57.270Z,12.80
2019-05-30T17:34:17.724Z,12.80
2019-05-30T17:36:37.729Z,12.70
2019-05-30T17:39:00.735Z,12.60
2019-05-30T17:41:22.746Z,12.60
2019-05-30T17:43:42.668Z,12.60
2019-05-30T17:46:01.842Z,12.60
2019-05-30T17:48:21.474Z,12.60
2019-05-30T17:50:40.591Z,12.70
2019-05-30T17:52:59.594Z,12.60
2019-05-30T17:55:19.689Z,12.60
2019-05-30T17:57:38.779Z,12.60
2019-05-30T17:59:57.779Z,12.70
2019-05-30T18:02:16.738Z,12.80
2019-05-30T18:04:35.745Z,12.70
2019-05-30T18:06:54.758Z,12.60
2019-05-30T18:09:13.875Z,12.60
2019-05-30T18:11:33.008Z,12.60
2019-05-30T18:13:52.099Z,12.50
2019-05-30T18:16:11.017Z,12.50
2019-05-30T18:18:31.389Z,12.40
2019-05-30T18:20:50.517Z,12.30
2019-05-30T18:23:09.659Z,12.30
2019-05-30T18:25:31.907Z,12.30
2019-05-30T18:27:50.958Z,12.30
2019-05-30T18:30:10.828Z,12.20
2019-05-30T18:32:30.971Z,12.20
2019-05-30T18:34:50.323Z,12.10
2019-05-30T18:37:09.357Z,12.10
2019-05-30T18:39:31.260Z,12.20
2019-05-30T18:41:52.669Z,12.20
2019-05-30T18:44:11.690Z,12.10
2019-05-30T18:46:31.213Z,12.10
2019-05-30T18:48:50.232Z,12.50
2019-05-30T18:51:10.341Z,12.70
2019-05-30T18:53:30.395Z,12.60
2019-05-30T18:55:49.524Z,12.40
2019-05-30T18:58:08.733Z,12.30
2019-05-30T19:00:29.039Z,12.20
2019-05-30T19:02:48.175Z,12.20
2019-05-30T19:05:07.610Z,12.10
2019-05-30T19:07:26.798Z,12.10
2019-05-30T19:09:45.911Z,12.00
2019-05-30T19:12:05.025Z,12.00
2019-05-30T19:14:23.959Z,12.00
2019-05-30T19:16:43.161Z,12.00
2019-05-30T19:19:02.528Z,11.90
2019-05-30T19:21:21.612Z,11.80
2019-05-30T19:23:40.628Z,11.80
2019-05-30T19:25:59.643Z,11.80
2019-05-30T19:28:18.626Z,11.90
2019-05-30T19:30:41.026Z,11.90
2019-05-30T19:32:58.620Z,11.90
2019-05-30T19:35:17.631Z,11.80
2019-05-30T19:37:37.745Z,11.80
2019-05-30T19:39:56.908Z,11.80
2019-05-30T19:42:16.064Z,11.80
2019-05-30T19:44:38.370Z,11.70
2019-05-30T19:46:55.931Z,11.70
2019-05-30T19:49:14.924Z,11.70
2019-05-30T19:51:35.105Z,11.70
2019-05-30T19:54:00.102Z,11.70
2019-05-30T19:56:20.636Z,11.70
2019-05-30T19:58:39.967Z,11.70
2019-05-30T20:00:59.330Z,11.70
2019-05-30T20:03:35.372Z,11.80
2019-05-30T20:05:40.969Z,11.90
2019-05-30T20:08:00.020Z,11.90
2019-05-30T20:10:19.125Z,12.00
2019-05-30T20:12:39.038Z,12.00
2019-05-30T20:14:58.107Z,12.00
2019-05-30T20:17:17.219Z,11.90
2019-05-30T20:19:36.234Z,11.90
2019-05-30T20:21:55.349Z,11.90
2019-05-30T20:24:14.343Z,11.80
2019-05-30T20:26:34.367Z,11.80
2019-05-30T20:28:53.360Z,11.90
2019-05-30T20:31:12.283Z,11.90
2019-05-30T20:33:31.297Z,11.80
2019-05-30T20:35:50.397Z,11.70
2019-05-30T20:38:09.405Z,11.60
2019-05-30T20:40:28.455Z,11.50
2019-05-30T20:42:47.476Z,11.50
2019-05-30T20:45:09.731Z,11.40
2019-05-30T20:47:27.344Z,11.40
2019-05-30T20:49:47.511Z,11.40
2019-05-30T20:52:06.535Z,11.50
2019-05-30T20:54:26.065Z,11.50
2019-05-30T20:56:48.724Z,11.50
2019-05-30T20:59:05.935Z,11.60
2019-05-30T21:01:25.381Z,11.60
2019-05-30T21:03:44.468Z,11.50
2019-05-30T21:06:03.559Z,11.50
2019-05-30T21:08:22.538Z,11.50
2019-05-30T21:10:43.298Z,11.50
2019-05-30T21:13:05.712Z,11.40
2019-05-30T21:15:24.812Z,11.30
2019-05-30T21:17:46.063Z,11.30
2019-05-30T21:20:10.967Z,11.20
2019-05-30T21:22:27.619Z,11.30
2019-05-30T21:24:47.058Z,11.30
2019-05-30T21:27:06.140Z,11.30
2019-05-30T21:29:25.062Z,11.30
2019-05-30T21:31:45.463Z,11.20
2019-05-30T21:34:04.869Z,11.20
2019-05-30T21:36:26.809Z,11.10
2019-05-30T21:38:46.104Z,11.10
2019-05-30T21:41:05.140Z,11.10
2019-05-30T21:43:24.122Z,11.10
2019-05-30T21:45:43.049Z,11.10
2019-05-30T21:48:02.063Z,11.20
2019-05-30T21:50:20.990Z,11.20
2019-05-30T21:52:41.354Z,11.20
2019-05-30T21:55:03.225Z,11.30
2019-05-30T21:57:21.420Z,11.30
2019-05-30T21:59:40.438Z,11.30
2019-05-30T22:01:59.791Z,11.20
2019-05-30T22:04:19.153Z,11.30
2019-05-30T22:06:38.277Z,11.40
2019-05-30T22:08:57.359Z,11.40
2019-05-30T22:11:16.316Z,11.40
2019-05-30T22:13:35.409Z,11.30
2019-05-30T22:15:54.323Z,11.30
2019-05-30T22:18:13.700Z,11.30
2019-05-30T22:20:32.835Z,11.40
2019-05-30T22:22:52.234Z,11.50
2019-05-30T22:25:11.332Z,11.40
2019-05-30T22:27:30.279Z,11.30
2019-05-30T22:29:50.505Z,11.40
2019-05-30T22:32:09.612Z,11.40
2019-05-30T22:34:28.596Z,11.40
2019-05-30T22:36:48.849Z,11.40
2019-05-30T22:39:08.965Z,11.40
2019-05-30T22:41:28.142Z,11.40
2019-05-30T22:43:48.242Z,11.30
2019-05-30T22:46:07.337Z,11.40
2019-05-30T22:48:27.839Z,11.30
2019-05-30T22:50:47.102Z,11.30
2019-05-30T22:53:06.116Z,11.30
2019-05-30T22:55:25.041Z,11.30
2019-05-30T22:57:44.397Z,11.30
2019-05-30T23:00:04.960Z,11.20
2019-05-30T23:02:25.651Z,11.20
2019-05-30T23:04:44.652Z,11.30
2019-05-30T23:07:03.750Z,11.30
2019-05-30T23:09:22.737Z,11.20
2019-05-30T23:11:41.690Z,11.20
2019-05-30T23:14:01.649Z,11.30
2019-05-30T23:16:20.715Z,11.30
2019-05-30T23:18:41.417Z,11.40
2019-05-30T23:21:00.412Z,11.30
2019-05-30T23:23:20.300Z,11.20
2019-05-30T23:25:39.316Z,11.20
2019-05-30T23:27:58.274Z,11.20
2019-05-30T23:30:17.511Z,11.20
2019-05-30T23:32:36.575Z,11.20
2019-05-30T23:34:56.389Z,11.40
2019-05-30T23:37:15.394Z,11.30
2019-05-30T23:39:34.307Z,11.20
2019-05-30T23:41:53.242Z,11.20
2019-05-30T23:44:12.301Z,11.20
2019-05-30T23:46:31.274Z,11.30
2019-05-30T23:48:51.470Z,11.30
2019-05-30T23:51:10.497Z,11.30
2019-05-30T23:53:29.479Z,11.20
2019-05-30T23:55:48.398Z,11.10
2019-05-30T23:58:07.332Z,11.20
